Time;durP1;ratioP1;P1;durP2;ratioP2;P2;SDS_P1;SDS_P2;PMS_P1;PMS_P2;Temp;Humidity;BMP_temperature;BMP_pressure;BME280_temperature;BME280_humidity;BME280_pressure;Samples;Min_cycle;Max_cycle;Signal;HPM_P1;HPM_P2
2022/09/20 00:00:12;;;;;;;7.47;1.40;;;;;;;;;;5035083;28;20025;-65
2022/09/20 00:02:37;;;;;;;5.55;1.20;;;;;;;;;;5042808;28;20021;-68
2022/09/20 00:05:03;;;;;;;5.25;1.55;;;;;;;;;;5052176;28;20367;-68
2022/09/20 00:07:28;;;;;;;4.95;1.23;;;;;;;;;;5039533;28;20072;-66
2022/09/20 00:09:53;;;;;;;7.45;1.55;;;;;;;;;;5028926;28;20103;-67
2022/09/20 00:12:19;;;;;;;7.00;1.30;;;;;;;;;;5042939;28;20070;-65
2022/09/20 00:14:44;;;;;;;6.35;1.23;;;;;;;;;;5042673;28;20048;-68
2022/09/20 00:17:09;;;;;;;2.17;0.90;;;;;;;;;;5041837;28;20239;-65
2022/09/20 00:19:35;;;;;;;5.10;1.30;;;;;;;;;;5039066;28;20028;-67
2022/09/20 00:22:00;;;;;;;5.53;1.30;;;;;;;;;;5032217;28;20117;-64
2022/09/20 00:24:25;;;;;;;9.98;2.28;;;;;;;;;;5046572;28;20112;-66
2022/09/20 00:26:51;;;;;;;7.50;1.85;;;;;;;;;;5052523;28;20017;-64
2022/09/20 00:29:16;;;;;;;6.22;1.55;;;;;;;;;;5048453;28;20121;-66
2022/09/20 00:31:41;;;;;;;6.78;1.35;;;;;;;;;;5042259;28;20678;-67
2022/09/20 00:36:51;;;;;;;6.85;1.60;;;;;;;;;;5043266;28;20024;-67
2022/09/20 00:39:17;;;;;;;8.07;1.65;;;;;;;;;;5047640;28;20022;-67
2022/09/20 00:41:42;;;;;;;3.25;1.30;;;;;;;;;;5044248;28;20107;-64
2022/09/20 00:44:26;;;;;;;6.13;1.55;;;;;;;;;;5049755;28;20111;-66
2022/09/20 00:46:51;;;;;;;7.50;1.50;;;;;;;;;;5023590;28;20030;-65
2022/09/20 00:49:19;;;;;;;5.32;1.20;;;;;;;;;;5032609;28;20426;-67
2022/09/20 00:51:46;;;;;;;7.97;1.85;;;;;;;;;;5032727;28;20022;-64
2022/09/20 00:54:13;;;;;;;4.13;1.30;;;;;;;;;;5044380;28;20021;-66
2022/09/20 00:56:42;;;;;;;9.60;1.88;;;;;;;;;;5045354;28;20021;-65
2022/09/20 00:59:14;;;;;;;5.93;1.50;;;;;;;;;;5032375;28;20566;-66
2022/09/20 01:01:40;;;;;;;11.52;1.83;;;;;;;;;;5035113;28;20037;-66
2022/09/20 01:04:05;;;;;;;7.63;2.10;;;;;;;;;;5052665;28;20021;-66
2022/09/20 01:06:31;;;;;;;6.30;1.55;;;;;;;;;;5051157;28;20025;-65
2022/09/20 01:09:01;;;;;;;2.70;1.52;;;;;;;;;;5043548;28;20520;-65
2022/09/20 01:11:27;;;;;;;10.63;1.52;;;;;;;;;;5032558;28;20024;-65
2022/09/20 01:13:52;;;;;;;5.00;1.58;;;;;;;;;;5040860;28;20016;-67
2022/09/20 01:16:18;;;;;;;6.93;1.70;;;;;;;;;;5045668;28;20025;-67
2022/09/20 01:18:43;;;;;;;2.63;1.38;;;;;;;;;;5030743;28;20127;-64
2022/09/20 01:21:09;;;;;;;17.17;2.53;;;;;;;;;;5018986;28;20025;-67
2022/09/20 01:23:37;;;;;;;7.47;1.50;;;;;;;;;;5032196;28;20036;-66
2022/09/20 01:26:14;;;;;;;6.90;2.05;;;;;;;;;;5048848;28;20029;-68
2022/09/20 01:28:41;;;;;;;9.10;2.75;;;;;;;;;;5051743;28;20109;-67
2022/09/20 01:31:25;;;;;;;5.45;1.58;;;;;;;;;;5015066;28;20064;-67
2022/09/20 01:33:58;;;;;;;8.95;1.83;;;;;;;;;;5013468;28;20037;-66
2022/09/20 01:36:25;;;;;;;10.48;2.40;;;;;;;;;;5025007;28;20025;-66
2022/09/20 01:38:50;;;;;;;9.10;2.13;;;;;;;;;;5047198;28;20051;-65
2022/09/20 01:41:16;;;;;;;10.10;2.10;;;;;;;;;;5034355;28;20401;-67
2022/09/20 01:43:41;;;;;;;12.50;2.20;;;;;;;;;;5052403;28;20402;-65
2022/09/20 01:46:13;;;;;;;16.07;2.40;;;;;;;;;;5041535;28;20367;-67
2022/09/20 01:48:39;;;;;;;10.77;2.35;;;;;;;;;;5029276;28;20443;-67
2022/09/20 01:51:04;;;;;;;9.55;2.30;;;;;;;;;;5042729;28;20605;-66
2022/09/20 01:53:46;;;;;;;8.45;2.20;;;;;;;;;;5033688;28;20053;-65
2022/09/20 01:56:22;;;;;;;9.90;2.25;;;;;;;;;;5052112;28;20337;-65
2022/09/20 01:58:56;;;;;;;7.75;2.13;;;;;;;;;;5051199;28;20045;-67
2022/09/20 02:01:24;;;;;;;9.90;2.20;;;;;;;;;;5037795;28;20029;-67
2022/09/20 02:03:58;;;;;;;10.73;2.65;;;;;;;;;;5051600;28;20406;-68
2022/09/20 02:06:42;;;;;;;6.00;2.25;;;;;;;;;;5049591;28;20173;-67
2022/09/20 02:09:33;;;;;;;13.10;2.65;;;;;;;;;;5029873;28;20121;-64
2022/09/20 02:12:13;;;;;;;14.63;2.50;;;;;;;;;;5027633;28;20052;-68
2022/09/20 02:15:05;;;;;;;17.35;2.40;;;;;;;;;;5047501;28;20120;-68
2022/09/20 02:17:40;;;;;;;9.93;2.75;;;;;;;;;;5044088;28;20021;-68
2022/09/20 02:20:17;;;;;;;10.40;1.92;;;;;;;;;;5036957;28;20139;-68
2022/09/20 02:22:57;;;;;;;6.78;1.60;;;;;;;;;;5026872;28;20091;-66
2022/09/20 02:25:35;;;;;;;9.93;2.80;;;;;;;;;;5042800;28;20017;-64
2022/09/20 02:28:18;;;;;;;11.60;1.80;;;;;;;;;;5043808;28;20019;-66
2022/09/20 02:30:50;;;;;;;9.82;1.30;;;;;;;;;;5032303;28;20075;-66
2022/09/20 02:33:34;;;;;;;11.55;1.70;;;;;;;;;;5046915;28;20013;-65
2022/09/20 02:36:00;;;;;;;5.85;1.40;;;;;;;;;;5043668;28;20042;-64
2022/09/20 02:38:43;;;;;;;5.50;1.40;;;;;;;;;;5040866;28;20044;-66
2022/09/20 02:41:09;;;;;;;9.90;1.50;;;;;;;;;;5042001;28;20255;-67
2022/09/20 02:43:43;;;;;;;8.47;1.30;;;;;;;;;;5030855;28;20123;-66
2022/09/20 02:46:28;;;;;;;8.20;1.75;;;;;;;;;;5038352;28;20279;-66
2022/09/20 02:48:59;;;;;;;7.05;1.38;;;;;;;;;;5028499;28;20049;-65
2022/09/20 02:51:42;;;;;;;5.35;1.30;;;;;;;;;;5042182;28;20078;-65
2022/09/20 02:54:30;;;;;;;7.55;1.60;;;;;;;;;;5044530;28;20017;-67
2022/09/20 02:56:55;;;;;;;7.32;1.33;;;;;;;;;;5050568;28;20031;-67
2022/09/20 02:59:26;;;;;;;9.00;1.73;;;;;;;;;;5056016;28;20033;-67
2022/09/20 03:02:10;;;;;;;9.55;1.48;;;;;;;;;;5048363;28;20040;-65
2022/09/20 03:04:55;;;;;;;2.63;1.10;;;;;;;;;;5053614;28;20047;-67
2022/09/20 03:07:23;;;;;;;13.38;2.38;;;;;;;;;;5032958;28;20025;-66
2022/09/20 03:09:57;;;;;;;11.25;1.90;;;;;;;;;;5038770;28;20113;-65
2022/09/20 03:12:23;;;;;;;6.22;2.03;;;;;;;;;;5054948;28;20021;-67
2022/09/20 03:14:54;;;;;;;4.53;1.13;;;;;;;;;;5040038;28;20021;-64
2022/09/20 03:17:45;;;;;;;6.82;1.55;;;;;;;;;;5032968;28;20032;-67
2022/09/20 03:20:14;;;;;;;7.95;1.42;;;;;;;;;;5037725;28;20033;-67
2022/09/20 03:22:59;;;;;;;10.93;1.77;;;;;;;;;;5029700;28;20086;-67
2022/09/20 03:25:38;;;;;;;9.65;2.30;;;;;;;;;;5046341;28;20132;-67
2022/09/20 03:28:18;;;;;;;11.30;1.67;;;;;;;;;;5054050;28;20020;-65
2022/09/20 03:31:02;;;;;;;11.02;1.70;;;;;;;;;;5053918;28;20021;-66
2022/09/20 03:33:37;;;;;;;11.32;1.80;;;;;;;;;;5030831;28;20029;-68
2022/09/20 03:36:17;;;;;;;14.05;2.10;;;;;;;;;;5034991;28;20032;-64
2022/09/20 03:39:06;;;;;;;12.73;2.67;;;;;;;;;;5048090;28;20024;-64
2022/09/20 03:41:46;;;;;;;10.85;1.73;;;;;;;;;;5035238;28;20033;-67
2022/09/20 03:44:26;;;;;;;14.40;1.80;;;;;;;;;;5040154;28;20037;-67
2022/09/20 03:46:58;;;;;;;9.32;2.22;;;;;;;;;;5040442;28;20495;-64
2022/09/20 03:49:42;;;;;;;10.30;2.15;;;;;;;;;;5054296;28;20122;-65
2022/09/20 03:52:25;;;;;;;11.70;1.77;;;;;;;;;;5035975;28;20029;-65
2022/09/20 03:54:58;;;;;;;10.48;2.35;;;;;;;;;;5041039;28;20479;-67
2022/09/20 03:57:28;;;;;;;4.45;1.63;;;;;;;;;;5053668;28;20021;-66
2022/09/20 04:00:12;;;;;;;8.32;2.25;;;;;;;;;;5022879;28;20057;-67
2022/09/20 04:02:40;;;;;;;8.27;1.75;;;;;;;;;;5049956;28;20438;-67
2022/09/20 04:05:08;;;;;;;12.23;2.00;;;;;;;;;;5048582;28;20025;-68
2022/09/20 04:07:45;;;;;;;27.63;2.30;;;;;;;;;;5031144;28;20072;-68
2022/09/20 04:10:26;;;;;;;5.57;1.75;;;;;;;;;;5040563;28;20406;-65
2022/09/20 04:13:15;;;;;;;17.27;2.42;;;;;;;;;;5034952;28;20024;-68
2022/09/20 04:15:46;;;;;;;8.48;1.83;;;;;;;;;;5043372;28;20051;-68
2022/09/20 04:18:11;;;;;;;7.30;1.83;;;;;;;;;;5034215;28;20033;-67
2022/09/20 04:20:37;;;;;;;10.32;1.80;;;;;;;;;;5022145;28;20025;-64
2022/09/20 04:23:23;;;;;;;12.80;2.30;;;;;;;;;;5025102;28;20135;-68
2022/09/20 04:25:49;;;;;;;9.48;2.40;;;;;;;;;;5011779;28;20032;-67
2022/09/20 04:28:25;;;;;;;10.48;2.10;;;;;;;;;;5042727;28;20028;-68
2022/09/20 04:30:54;;;;;;;8.93;1.88;;;;;;;;;;5040159;28;20032;-67
2022/09/20 04:33:22;;;;;;;15.77;3.22;;;;;;;;;;5033996;28;20009;-67
2022/09/20 04:39:11;;;;;;;11.85;2.58;;;;;;;;;;5040012;28;20024;-66
2022/09/20 04:41:51;;;;;;;12.63;2.28;;;;;;;;;;5000613;28;20625;-66
2022/09/20 04:44:16;;;;;;;8.98;2.42;;;;;;;;;;5073158;22;20418;-68
2022/09/20 04:47:05;;;;;;;13.40;3.60;;;;;;;;;;5026358;28;20026;-68
2022/09/20 04:49:49;;;;;;;14.10;2.78;;;;;;;;;;5028828;28;20840;-68
2022/09/20 04:52:26;;;;;;;12.55;2.33;;;;;;;;;;5026457;28;20030;-68
2022/09/20 04:55:10;;;;;;;11.25;2.58;;;;;;;;;;5030660;28;20045;-68
2022/09/20 04:57:49;;;;;;;10.20;2.75;;;;;;;;;;5026586;28;20021;-68
2022/09/20 05:00:14;;;;;;;14.60;2.75;;;;;;;;;;5029297;28;20040;-69
2022/09/20 05:02:46;;;;;;;10.93;2.53;;;;;;;;;;5020783;28;20042;-68
2022/09/20 05:05:28;;;;;;;10.18;2.35;;;;;;;;;;5022988;28;20029;-68
2022/09/20 05:08:13;;;;;;;15.38;3.17;;;;;;;;;;5018850;28;20114;-67
2022/09/20 05:10:46;;;;;;;14.30;2.42;;;;;;;;;;5015589;28;20483;-65
2022/09/20 05:13:14;;;;;;;15.85;3.25;;;;;;;;;;5030501;28;20035;-65
2022/09/20 05:15:42;;;;;;;10.18;2.58;;;;;;;;;;5020366;28;20017;-68
2022/09/20 05:18:23;;;;;;;11.37;2.97;;;;;;;;;;5000579;28;20117;-66
2022/09/20 05:21:07;;;;;;;8.80;2.47;;;;;;;;;;5016628;28;20540;-67
2022/09/20 05:23:38;;;;;;;12.02;2.45;;;;;;;;;;5028983;28;20021;-67
2022/09/20 05:26:16;;;;;;;16.73;2.63;;;;;;;;;;5030462;28;20045;-67
2022/09/20 05:28:49;;;;;;;12.20;3.17;;;;;;;;;;5010884;28;20055;-68
2022/09/20 05:31:19;;;;;;;8.30;2.70;;;;;;;;;;5009855;28;20026;-67
2022/09/20 05:33:53;;;;;;;12.32;2.90;;;;;;;;;;5017645;28;20494;-66
2022/09/20 05:36:37;;;;;;;11.25;2.97;;;;;;;;;;5010647;28;20022;-65
2022/09/20 05:39:21;;;;;;;12.65;3.13;;;;;;;;;;5015300;28;20108;-66
2022/09/20 05:41:57;;;;;;;13.00;4.05;;;;;;;;;;5029640;28;20077;-66
2022/09/20 05:44:22;;;;;;;13.77;3.50;;;;;;;;;;5012553;28;20049;-65
2022/09/20 05:46:50;;;;;;;14.43;4.13;;;;;;;;;;5022767;28;20423;-67
2022/09/20 05:49:18;;;;;;;16.67;4.20;;;;;;;;;;5009585;28;20271;-67
2022/09/20 05:51:52;;;;;;;14.82;4.38;;;;;;;;;;5007979;28;20018;-67
2022/09/20 05:54:21;;;;;;;15.32;3.70;;;;;;;;;;5010065;28;20018;-67
2022/09/20 05:57:05;;;;;;;18.77;4.63;;;;;;;;;;5006676;28;20128;-64
2022/09/20 05:59:39;;;;;;;11.38;4.25;;;;;;;;;;5002213;28;20539;-66
2022/09/20 06:02:19;;;;;;;18.13;3.95;;;;;;;;;;5009374;28;20022;-67
2022/09/20 06:05:03;;;;;;;13.82;4.43;;;;;;;;;;5008156;28;20057;-66
2022/09/20 06:07:28;;;;;;;13.45;3.85;;;;;;;;;;5004569;28;20026;-65
2022/09/20 06:10:06;;;;;;;18.17;4.50;;;;;;;;;;5021378;28;20076;-65
2022/09/20 06:12:34;;;;;;;12.77;3.92;;;;;;;;;;5009917;28;20148;-65
2022/09/20 06:15:20;;;;;;;11.13;4.23;;;;;;;;;;5026089;28;20029;-66
2022/09/20 06:18:00;;;;;;;13.13;3.60;;;;;;;;;;5000185;28;20251;-66
2022/09/20 06:20:38;;;;;;;11.30;3.05;;;;;;;;;;5003554;28;20022;-67
2022/09/20 06:23:04;;;;;;;19.60;3.38;;;;;;;;;;5013783;28;20018;-68
2022/09/20 06:25:43;;;;;;;17.08;3.22;;;;;;;;;;5029413;28;20049;-67
2022/09/20 06:28:22;;;;;;;11.30;3.03;;;;;;;;;;5021144;28;20021;-67
2022/09/20 06:30:49;;;;;;;13.02;3.05;;;;;;;;;;5009845;28;20020;-66
2022/09/20 06:33:16;;;;;;;12.40;2.75;;;;;;;;;;5000965;28;20257;-67
2022/09/20 06:41:25;;;;;;;18.02;3.83;;;;;;;;;;4999024;28;20014;-68
2022/09/20 06:41:32;;;;;;;11.67;3.60;;;;;;;;;;5003217;28;20033;-68
2022/09/20 06:43:58;;;;;;;10.25;3.75;;;;;;;;;;5002060;28;20271;-68
2022/09/20 06:46:27;;;;;;;20.90;4.13;;;;;;;;;;5003180;28;20030;-66
2022/09/20 06:48:53;;;;;;;14.23;4.22;;;;;;;;;;5006740;28;20050;-66
2022/09/20 06:51:18;;;;;;;20.75;3.88;;;;;;;;;;5012017;28;20022;-68
2022/09/20 06:53:43;;;;;;;14.40;3.25;;;;;;;;;;5026230;28;20037;-67
2022/09/20 06:56:14;;;;;;;12.95;3.50;;;;;;;;;;5017705;28;20014;-68
2022/09/20 06:58:39;;;;;;;13.43;3.58;;;;;;;;;;5026310;28;20025;-68
2022/09/20 07:01:04;;;;;;;12.50;3.60;;;;;;;;;;4995538;28;20095;-68
2022/09/20 07:03:30;;;;;;;17.77;3.92;;;;;;;;;;5012584;28;20259;-67
2022/09/20 07:05:56;;;;;;;14.60;3.60;;;;;;;;;;5017525;28;20053;-66
2022/09/20 07:08:21;;;;;;;19.10;4.40;;;;;;;;;;5012046;28;20109;-68
2022/09/20 07:10:47;;;;;;;22.38;3.90;;;;;;;;;;5029205;28;20101;-67
2022/09/20 07:13:14;;;;;;;23.48;3.67;;;;;;;;;;5015800;28;20037;-67
2022/09/20 07:15:40;;;;;;;13.55;4.15;;;;;;;;;;5017801;28;20030;-68
2022/09/20 07:18:06;;;;;;;18.85;4.57;;;;;;;;;;5024640;28;20086;-68
2022/09/20 07:20:32;;;;;;;12.18;3.75;;;;;;;;;;5007060;28;20030;-67
2022/09/20 07:22:58;;;;;;;14.95;3.35;;;;;;;;;;5010876;28;20017;-67
2022/09/20 07:25:23;;;;;;;14.77;4.28;;;;;;;;;;5028710;28;20020;-67
2022/09/20 07:27:49;;;;;;;17.63;3.60;;;;;;;;;;5027666;28;20025;-68
2022/09/20 07:30:14;;;;;;;18.25;4.00;;;;;;;;;;5004131;28;20026;-67
2022/09/20 07:32:39;;;;;;;10.77;3.42;;;;;;;;;;5025303;28;20434;-66
2022/09/20 07:35:06;;;;;;;12.38;4.35;;;;;;;;;;5014040;28;20101;-67
2022/09/20 07:37:31;;;;;;;18.58;4.38;;;;;;;;;;5008850;28;20013;-69
2022/09/20 07:39:56;;;;;;;15.65;5.00;;;;;;;;;;5011076;28;20171;-67
2022/09/20 07:42:21;;;;;;;18.63;4.43;;;;;;;;;;5029944;28;20069;-67
2022/09/20 07:44:48;;;;;;;19.02;4.65;;;;;;;;;;5029716;28;20029;-67
2022/09/20 07:47:13;;;;;;;24.25;4.88;;;;;;;;;;4997330;28;20022;-68
2022/09/20 07:49:39;;;;;;;12.75;4.40;;;;;;;;;;5031448;28;20083;-66
2022/09/20 07:52:04;;;;;;;15.15;4.43;;;;;;;;;;5013729;28;20059;-66
2022/09/20 07:54:29;;;;;;;15.23;4.68;;;;;;;;;;5004036;28;20018;-68
2022/09/20 07:56:54;;;;;;;17.23;5.32;;;;;;;;;;5028305;28;20024;-68
2022/09/20 07:59:20;;;;;;;20.02;5.50;;;;;;;;;;5031568;28;20022;-68
2022/09/20 08:01:45;;;;;;;17.52;5.40;;;;;;;;;;5016825;28;20483;-67
2022/09/20 08:04:10;;;;;;;12.93;4.13;;;;;;;;;;5030900;28;20074;-67
2022/09/20 08:06:39;;;;;;;12.15;4.80;;;;;;;;;;5029600;28;20109;-68
2022/09/20 08:09:05;;;;;;;22.38;6.68;;;;;;;;;;5009877;28;20400;-68
2022/09/20 08:11:31;;;;;;;14.45;4.70;;;;;;;;;;5029064;28;20026;-66
2022/09/20 08:13:58;;;;;;;16.40;5.22;;;;;;;;;;5031812;28;20482;-65
2022/09/20 08:16:23;;;;;;;22.13;5.13;;;;;;;;;;5020075;28;20021;-67
2022/09/20 08:18:54;;;;;;;14.93;5.10;;;;;;;;;;5031548;28;20386;-68
2022/09/20 08:21:20;;;;;;;19.45;5.55;;;;;;;;;;5002081;28;20093;-67
2022/09/20 08:23:48;;;;;;;16.00;6.70;;;;;;;;;;5011857;28;20252;-67
2022/09/20 08:26:17;;;;;;;10.52;3.97;;;;;;;;;;5017292;28;20025;-66
2022/09/20 08:28:43;;;;;;;14.90;5.03;;;;;;;;;;5013107;28;20022;-66
2022/09/20 08:31:12;;;;;;;23.70;5.30;;;;;;;;;;5014242;28;20029;-68
2022/09/20 08:33:38;;;;;;;13.18;4.60;;;;;;;;;;5013858;28;20018;-67
2022/09/20 08:36:09;;;;;;;16.50;4.90;;;;;;;;;;5013959;28;20017;-67
2022/09/20 08:38:34;;;;;;;14.00;4.22;;;;;;;;;;5010730;28;20033;-64
2022/09/20 08:41:05;;;;;;;9.52;4.10;;;;;;;;;;5013112;28;20025;-67
2022/09/20 08:43:38;;;;;;;17.67;5.18;;;;;;;;;;5012119;28;20751;-67
2022/09/20 08:46:04;;;;;;;12.35;4.57;;;;;;;;;;5011882;28;20121;-68
2022/09/20 08:48:32;;;;;;;13.38;4.82;;;;;;;;;;5009963;28;20032;-66
2022/09/20 08:50:58;;;;;;;23.17;4.75;;;;;;;;;;5017745;28;20034;-67
2022/09/20 08:53:26;;;;;;;13.70;4.65;;;;;;;;;;5030315;28;20046;-67
2022/09/20 08:55:51;;;;;;;11.70;4.40;;;;;;;;;;5005110;28;20073;-67
2022/09/20 08:58:18;;;;;;;13.77;4.40;;;;;;;;;;5024777;28;20013;-68
2022/09/20 09:00:45;;;;;;;17.05;5.03;;;;;;;;;;5025531;28;20014;-68
2022/09/20 09:03:11;;;;;;;14.77;4.78;;;;;;;;;;5025217;28;20114;-67
2022/09/20 09:05:39;;;;;;;15.60;4.82;;;;;;;;;;5029249;28;20024;-69
2022/09/20 09:08:15;;;;;;;20.30;4.87;;;;;;;;;;5029092;28;20017;-68
2022/09/20 09:10:41;;;;;;;16.85;5.20;;;;;;;;;;5030567;28;20255;-67
2022/09/20 09:13:06;;;;;;;17.70;4.72;;;;;;;;;;5030196;28;20014;-68
2022/09/20 09:15:35;;;;;;;17.80;4.10;;;;;;;;;;5027094;28;20807;-67
2022/09/20 09:18:00;;;;;;;19.15;5.65;;;;;;;;;;4991678;28;20053;-67
2022/09/20 09:20:26;;;;;;;12.23;4.68;;;;;;;;;;5010904;28;20064;-67
2022/09/20 09:23:03;;;;;;;20.00;5.65;;;;;;;;;;5013867;28;20017;-67
2022/09/20 09:25:33;;;;;;;17.10;4.97;;;;;;;;;;5019058;28;20026;-68
2022/09/20 09:28:02;;;;;;;14.07;5.30;;;;;;;;;;5022736;28;20562;-67
2022/09/20 09:30:32;;;;;;;14.05;4.47;;;;;;;;;;5009798;28;20066;-69
2022/09/20 09:33:20;;;;;;;13.73;4.68;;;;;;;;;;5009812;28;20116;-68
2022/09/20 09:36:14;;;;;;;11.90;4.32;;;;;;;;;;5016503;28;20021;-67
2022/09/20 09:38:43;;;;;;;18.23;4.40;;;;;;;;;;5022562;28;20487;-69
2022/09/20 09:41:14;;;;;;;10.40;3.80;;;;;;;;;;5023538;28;20041;-68
2022/09/20 09:43:40;;;;;;;17.25;4.63;;;;;;;;;;5010802;28;20040;-71
2022/09/20 09:46:16;;;;;;;14.30;3.97;;;;;;;;;;5024622;28;20500;-70
2022/09/20 09:48:41;;;;;;;22.58;4.72;;;;;;;;;;5012425;28;20021;-69
2022/09/20 09:51:08;;;;;;;18.55;4.28;;;;;;;;;;5020595;28;20096;-68
2022/09/20 09:53:35;;;;;;;9.88;3.70;;;;;;;;;;4982127;28;20021;-69
2022/09/20 09:56:12;;;;;;;23.92;4.78;;;;;;;;;;5004695;28;20064;-69
2022/09/20 09:58:42;;;;;;;10.75;3.70;;;;;;;;;;5002681;28;20442;-69
2022/09/20 10:01:12;;;;;;;13.85;3.85;;;;;;;;;;5001913;28;20785;-69
2022/09/20 10:03:48;;;;;;;13.25;3.50;;;;;;;;;;5002490;28;20087;-68
2022/09/20 10:06:29;;;;;;;15.27;4.00;;;;;;;;;;5000828;28;20034;-67
2022/09/20 10:08:54;;;;;;;12.68;3.20;;;;;;;;;;4999564;28;20032;-70
2022/09/20 10:11:22;;;;;;;13.43;3.20;;;;;;;;;;5006886;28;20018;-67
2022/09/20 10:14:02;;;;;;;11.07;3.13;;;;;;;;;;5003137;28;20244;-70
2022/09/20 10:16:45;;;;;;;9.43;3.33;;;;;;;;;;4999922;28;20286;-69
2022/09/20 10:19:27;;;;;;;12.80;3.10;;;;;;;;;;5003994;28;20038;-70
2022/09/20 10:21:52;;;;;;;10.27;4.00;;;;;;;;;;5001373;28;20061;-69
2022/09/20 10:24:29;;;;;;;10.23;3.30;;;;;;;;;;5003989;28;20053;-69
2022/09/20 10:26:55;;;;;;;23.67;3.67;;;;;;;;;;5000778;28;20412;-70
2022/09/20 10:29:29;;;;;;;13.23;3.67;;;;;;;;;;5002459;28;20057;-68
2022/09/20 10:32:05;;;;;;;13.10;3.67;;;;;;;;;;5001922;28;20018;-68
2022/09/20 10:34:45;;;;;;;11.65;3.60;;;;;;;;;;5001202;28;20033;-68
2022/09/20 10:37:18;;;;;;;12.70;3.95;;;;;;;;;;5004610;28;20029;-68
2022/09/20 10:39:45;;;;;;;8.82;3.60;;;;;;;;;;5002496;28;20458;-69
2022/09/20 10:45:15;;;;;;;10.57;3.08;;;;;;;;;;5046590;22;20457;-68
2022/09/20 10:47:43;;;;;;;13.00;4.28;;;;;;;;;;5022297;28;20029;-68
2022/09/20 10:50:24;;;;;;;16.67;5.28;;;;;;;;;;5041333;28;20116;-69
2022/09/20 10:53:02;;;;;;;11.68;4.20;;;;;;;;;;5041794;28;20021;-68
2022/09/20 10:55:34;;;;;;;20.20;5.10;;;;;;;;;;5041073;28;20041;-68
2022/09/20 10:58:05;;;;;;;11.45;4.90;;;;;;;;;;5041317;28;20013;-65
2022/09/20 11:00:31;;;;;;;16.98;6.25;;;;;;;;;;5042388;28;20025;-69
2022/09/20 11:02:59;;;;;;;11.05;6.32;;;;;;;;;;5027207;28;20392;-69
2022/09/20 11:05:30;;;;;;;13.80;5.38;;;;;;;;;;5040106;28;20037;-69
2022/09/20 11:08:08;;;;;;;15.73;6.63;;;;;;;;;;5032723;28;20073;-67
2022/09/20 11:10:41;;;;;;;16.02;6.95;;;;;;;;;;5041869;28;20025;-67
2022/09/20 11:13:13;;;;;;;15.38;5.75;;;;;;;;;;5042638;28;20120;-66
2022/09/20 11:15:48;;;;;;;18.15;6.75;;;;;;;;;;5042757;28;20071;-68
2022/09/20 11:18:13;;;;;;;17.08;6.00;;;;;;;;;;5043015;28;20028;-67
2022/09/20 11:20:42;;;;;;;17.90;5.97;;;;;;;;;;5045181;28;20025;-67
2022/09/20 11:23:08;;;;;;;;;;;;;;;;;;5046224;28;20474;-68
2022/09/20 11:25:39;;;;;;;16.15;5.80;;;;;;;;;;5045503;28;19909;-66
2022/09/20 11:28:23;;;;;;;20.90;6.18;;;;;;;;;;5044306;28;20025;-68
2022/09/20 11:30:54;;;;;;;12.27;4.75;;;;;;;;;;5046449;28;20043;-66
2022/09/20 11:33:27;;;;;;;12.48;5.25;;;;;;;;;;5027368;28;20086;-68
2022/09/20 11:36:04;;;;;;;18.15;6.15;;;;;;;;;;5044474;28;20489;-68
2022/09/20 11:38:48;;;;;;;10.43;4.72;;;;;;;;;;5043936;28;20029;-68
2022/09/20 11:41:15;;;;;;;9.18;3.63;;;;;;;;;;5045669;28;20625;-67
2022/09/20 11:43:43;;;;;;;9.95;3.60;;;;;;;;;;5046030;28;20402;-67
2022/09/20 11:46:10;;;;;;;11.23;4.00;;;;;;;;;;5045363;28;20151;-69
2022/09/20 11:48:35;;;;;;;10.77;3.30;;;;;;;;;;5044693;28;20028;-68
2022/09/20 11:51:18;;;;;;;12.07;4.00;;;;;;;;;;5043913;28;20033;-67
2022/09/20 11:54:03;;;;;;;13.38;3.70;;;;;;;;;;5045290;28;20021;-69
2022/09/20 11:56:29;;;;;;;10.45;3.85;;;;;;;;;;5026247;28;20021;-66
2022/09/20 11:58:57;;;;;;;13.23;3.50;;;;;;;;;;5044237;28;20071;-69
2022/09/20 12:01:39;;;;;;;7.13;3.30;;;;;;;;;;5042307;28;20124;-68
2022/09/20 12:04:07;;;;;;;8.27;3.50;;;;;;;;;;5043670;28;20110;-67
2022/09/20 12:06:37;;;;;;;6.40;2.90;;;;;;;;;;5042550;28;20790;-67
2022/09/20 12:09:21;;;;;;;6.55;2.58;;;;;;;;;;5044636;28;20035;-65
2022/09/20 12:11:51;;;;;;;8.10;2.78;;;;;;;;;;5033275;28;20032;-69
2022/09/20 12:14:18;;;;;;;7.38;2.55;;;;;;;;;;5045545;28;20155;-67
2022/09/20 12:16:44;;;;;;;6.35;2.20;;;;;;;;;;5044525;28;20025;-67
2022/09/20 12:19:12;;;;;;;5.85;2.45;;;;;;;;;;5044136;28;20110;-68
2022/09/20 12:21:56;;;;;;;8.23;2.63;;;;;;;;;;5042830;28;20024;-70
2022/09/20 12:24:22;;;;;;;6.03;2.28;;;;;;;;;;5044015;28;20025;-68
2022/09/20 12:26:48;;;;;;;7.07;2.92;;;;;;;;;;5044852;28;20039;-66
2022/09/20 12:29:22;;;;;;;8.23;3.03;;;;;;;;;;5043115;28;20120;-70
2022/09/20 12:31:48;;;;;;;8.70;2.67;;;;;;;;;;5045661;28;20097;-68
2022/09/20 12:34:13;;;;;;;7.65;2.20;;;;;;;;;;5044928;28;20047;-68
2022/09/20 12:36:43;;;;;;;7.80;2.03;;;;;;;;;;5042011;28;20051;-68
2022/09/20 12:39:11;;;;;;;4.40;2.15;;;;;;;;;;5043382;28;20044;-66
2022/09/20 12:41:48;;;;;;;7.00;2.38;;;;;;;;;;5044874;28;20037;-68
2022/09/20 12:44:29;;;;;;;6.15;2.70;;;;;;;;;;5044194;28;20448;-68
2022/09/20 12:47:09;;;;;;;4.90;1.70;;;;;;;;;;5042474;28;20037;-67
2022/09/20 12:55:41;;;;;;;9.90;1.70;;;;;;;;;;4971297;28;20033;-67
2022/09/20 12:58:13;;;;;;;4.22;2.08;;;;;;;;;;5028154;28;20142;-68
2022/09/20 13:00:41;;;;;;;4.05;1.88;;;;;;;;;;5043650;28;20963;-68
2022/09/20 13:03:26;;;;;;;3.75;1.50;;;;;;;;;;5043485;28;20036;-67
2022/09/20 13:06:07;;;;;;;4.03;1.35;;;;;;;;;;5042209;28;20021;-67
2022/09/20 13:08:51;;;;;;;4.57;1.42;;;;;;;;;;5042452;28;20036;-69
2022/09/20 13:11:18;;;;;;;5.32;1.42;;;;;;;;;;5043977;28;20652;-69
2022/09/20 13:14:03;;;;;;;3.17;1.42;;;;;;;;;;5043268;28;20096;-66
2022/09/20 13:16:31;;;;;;;4.30;1.27;;;;;;;;;;5041497;28;20044;-66
2022/09/20 13:18:59;;;;;;;4.20;1.30;;;;;;;;;;5043001;28;20155;-67
2022/09/20 13:21:25;;;;;;;3.17;1.20;;;;;;;;;;5041129;28;20032;-68
2022/09/20 13:23:51;;;;;;;7.88;1.40;;;;;;;;;;5044284;28;20074;-66
2022/09/20 13:26:21;;;;;;;8.07;1.83;;;;;;;;;;5043292;28;20060;-68
2022/09/20 13:28:50;;;;;;;7.68;1.73;;;;;;;;;;5044028;28;20044;-67
2022/09/20 13:31:22;;;;;;;5.13;1.58;;;;;;;;;;5044284;28;20464;-67
2022/09/20 13:33:47;;;;;;;5.80;1.52;;;;;;;;;;5043173;28;20029;-67
2022/09/20 13:36:13;;;;;;;5.63;1.60;;;;;;;;;;5040678;28;20024;-67
2022/09/20 13:38:39;;;;;;;2.42;1.33;;;;;;;;;;5043422;28;20033;-66
2022/09/20 13:41:07;;;;;;;1.13;0.88;;;;;;;;;;5043004;28;20111;-68
2022/09/20 13:43:33;;;;;;;;;;;;;;;;;;5044175;28;20035;-68
2022/09/20 13:46:18;;;;;;;5.00;1.47;;;;;;;;;;5042864;28;19917;-67
2022/09/20 13:48:47;;;;;;;8.82;1.92;;;;;;;;;;5024505;28;20313;-67
2022/09/20 13:51:12;;;;;;;;;;;;;;;;;;5026575;28;20040;-67
2022/09/20 13:53:37;;;;;;;3.03;1.30;;;;;;;;;;5043253;28;19912;-68
2022/09/20 13:56:08;;;;;;;3.85;1.40;;;;;;;;;;5042950;28;20584;-68
2022/09/20 13:58:36;;;;;;;10.93;1.60;;;;;;;;;;5042069;28;20009;-67
2022/09/20 14:01:03;;;;;;;2.67;1.23;;;;;;;;;;5030183;28;20052;-67
2022/09/20 14:03:29;;;;;;;3.13;0.98;;;;;;;;;;5042672;28;20021;-71
2022/09/20 14:06:03;;;;;;;2.97;0.98;;;;;;;;;;5040323;28;20027;-69
2022/09/20 14:08:36;;;;;;;3.78;1.30;;;;;;;;;;5039908;28;20021;-68
2022/09/20 14:11:03;;;;;;;4.97;1.95;;;;;;;;;;5042936;28;20179;-68
2022/09/20 14:13:29;;;;;;;10.02;2.20;;;;;;;;;;5043929;28;20018;-69
2022/09/20 14:15:54;;;;;;;5.60;1.75;;;;;;;;;;5044297;28;20019;-66
2022/09/20 14:18:21;;;;;;;5.07;1.15;;;;;;;;;;5041931;28;20025;-68
2022/09/20 14:20:46;;;;;;;3.90;1.20;;;;;;;;;;5024757;28;20025;-68
2022/09/20 14:23:22;;;;;;;7.93;1.88;;;;;;;;;;5024185;28;20075;-67
2022/09/20 14:26:06;;;;;;;4.57;1.70;;;;;;;;;;5024293;28;20060;-69
2022/09/20 14:28:32;;;;;;;3.60;1.20;;;;;;;;;;5040431;28;20017;-69
2022/09/20 14:31:05;;;;;;;4.40;2.05;;;;;;;;;;5042399;28;20023;-67
2022/09/20 14:33:30;;;;;;;3.70;1.05;;;;;;;;;;5042408;28;20016;-70
2022/09/20 14:35:56;;;;;;;5.00;1.00;;;;;;;;;;5042237;28;20024;-68
2022/09/20 14:38:23;;;;;;;3.10;1.00;;;;;;;;;;5041544;28;20094;-66
2022/09/20 14:40:48;;;;;;;3.03;1.00;;;;;;;;;;5024146;28;20632;-65
2022/09/20 14:43:25;;;;;;;4.10;0.98;;;;;;;;;;5042702;28;20032;-68
2022/09/20 14:45:57;;;;;;;6.45;1.55;;;;;;;;;;5039552;28;20040;-67
2022/09/20 14:48:23;;;;;;;3.42;1.15;;;;;;;;;;5040798;28;20040;-68
2022/09/20 14:51:09;;;;;;;3.27;1.13;;;;;;;;;;5042069;28;20043;-68
2022/09/20 14:53:37;;;;;;;4.72;1.42;;;;;;;;;;5042232;28;20249;-68
2022/09/20 14:56:05;;;;;;;7.53;1.50;;;;;;;;;;5024114;28;20078;-67
2022/09/20 14:58:33;;;;;;;6.38;1.50;;;;;;;;;;5039921;28;20257;-67
2022/09/20 15:01:00;;;;;;;5.70;1.43;;;;;;;;;;5040478;28;20071;-66
2022/09/20 15:03:32;;;;;;;5.03;1.30;;;;;;;;;;5042501;28;20805;-71
2022/09/20 15:05:58;;;;;;;2.22;1.10;;;;;;;;;;5041229;28;20013;-68
2022/09/20 15:08:23;;;;;;;8.43;1.30;;;;;;;;;;5040342;28;20017;-67
2022/09/20 15:10:48;;;;;;;5.00;1.35;;;;;;;;;;5042751;28;20021;-68
2022/09/20 15:13:14;;;;;;;5.05;1.50;;;;;;;;;;5042262;28;20032;-69
2022/09/20 15:15:40;;;;;;;3.88;1.67;;;;;;;;;;5042529;28;20025;-68
2022/09/20 15:18:11;;;;;;;6.18;1.20;;;;;;;;;;5040780;28;20516;-67